Time;durP1;ratioP1;P1;durP2;ratioP2;P2;SDS_P1;SDS_P2;PMS_P1;PMS_P2;Temp;Humidity;BMP_temperature;BMP_pressure;BME280_temperature;BME280_humidity;BME280_pressure;Samples;Min_cycle;Max_cycle;Signal;HPM_P1;HPM_P2
2021/06/28 00:01:01;;;;;;;6.43;5.75;;;17.00;99.90;;;;;;5012872;28;20096;-72
2021/06/28 00:03:28;;;;;;;7.88;5.68;;;16.90;99.90;;;;;;5012610;28;20553;-73
2021/06/28 00:05:54;;;;;;;6.13;5.53;;;16.90;99.90;;;;;;5016307;28;20092;-72
2021/06/28 00:08:21;;;;;;;5.65;4.72;;;16.90;99.90;;;;;;5013383;28;20116;-73
2021/06/28 00:10:48;;;;;;;5.60;5.03;;;16.90;99.90;;;;;;5012469;28;20073;-72
2021/06/28 00:13:14;;;;;;;5.63;5.13;;;16.90;99.90;;;;;;5012874;28;20046;-73
2021/06/28 00:15:41;;;;;;;6.82;5.43;;;16.80;99.90;;;;;;5037091;28;20053;-73
2021/06/28 00:18:10;;;;;;;6.85;5.65;;;16.70;99.90;;;;;;5038753;28;20042;-73
2021/06/28 00:20:37;;;;;;;6.00;5.40;;;16.60;99.90;;;;;;5031276;28;20041;-73
2021/06/28 00:23:04;;;;;;;6.40;5.75;;;16.50;99.90;;;;;;5038846;28;20100;-73
2021/06/28 00:25:31;;;;;;;5.50;4.95;;;16.40;99.90;;;;;;5029135;28;20050;-73
2021/06/28 00:27:58;;;;;;;5.93;5.32;;;16.30;99.90;;;;;;5019157;28;20049;-73
2021/06/28 00:30:25;;;;;;;6.90;5.93;;;16.20;99.90;;;;;;5024216;28;20115;-73
2021/06/28 00:32:52;;;;;;;6.13;5.43;;;16.20;99.90;;;;;;5038900;28;20104;-73
2021/06/28 00:35:21;;;;;;;6.45;5.82;;;16.30;99.90;;;;;;5033817;28;20563;-72
2021/06/28 00:37:48;;;;;;;6.25;5.63;;;16.20;99.90;;;;;;5018781;28;20054;-73
2021/06/28 00:40:17;;;;;;;9.05;6.05;;;16.30;99.90;;;;;;5018540;28;20046;-72
2021/06/28 00:42:44;;;;;;;6.95;5.63;;;16.40;99.90;;;;;;5037883;28;20107;-72
2021/06/28 00:45:20;;;;;;;6.10;5.53;;;16.40;99.90;;;;;;5036817;28;20092;-72
2021/06/28 00:47:47;;;;;;;7.60;6.30;;;16.40;99.90;;;;;;5035914;28;20066;-73
2021/06/28 00:50:15;;;;;;;8.70;5.93;;;16.40;99.90;;;;;;5035412;28;20057;-73
2021/06/28 00:52:45;;;;;;;8.75;6.28;;;16.40;99.90;;;;;;5023306;28;20093;-73
2021/06/28 00:55:12;;;;;;;6.13;5.55;;;16.40;99.90;;;;;;5020125;28;20076;-71
2021/06/28 00:57:39;;;;;;;6.88;6.20;;;16.40;99.90;;;;;;5028639;28;20052;-70
2021/06/28 01:00:08;;;;;;;6.55;5.80;;;16.30;99.90;;;;;;5035522;28;20107;-70
2021/06/28 01:02:35;;;;;;;10.90;6.18;;;16.30;99.90;;;;;;5025652;28;20042;-70
2021/06/28 01:05:02;;;;;;;6.68;5.32;;;16.20;99.90;;;;;;5029793;28;20556;-70
2021/06/28 01:07:29;;;;;;;7.07;5.45;;;16.20;99.90;;;;;;5018327;28;20078;-70
2021/06/28 01:09:57;;;;;;;9.13;6.55;;;16.20;99.90;;;;;;5028647;28;20038;-70
2021/06/28 01:12:24;;;;;;;8.38;6.28;;;16.20;99.90;;;;;;5018577;28;20108;-70
2021/06/28 01:14:51;;;;;;;7.38;6.45;;;16.20;99.90;;;;;;5036694;28;20103;-70
2021/06/28 01:17:18;;;;;;;6.40;5.82;;;16.20;99.90;;;;;;5032807;28;20041;-71
2021/06/28 01:19:54;;;;;;;7.45;6.45;;;16.20;99.90;;;;;;5038050;28;20041;-70
2021/06/28 01:22:25;;;;;;;7.15;5.78;;;16.20;99.90;;;;;;5038063;28;20053;-70
2021/06/28 01:24:55;;;;;;;6.68;6.00;;;16.20;99.90;;;;;;5037564;28;20056;-71
2021/06/28 01:27:22;;;;;;;9.30;6.07;;;16.20;99.90;;;;;;5033988;28;20049;-69
2021/06/28 01:29:49;;;;;;;7.82;7.03;;;16.20;99.90;;;;;;5023009;28;20050;-69
2021/06/28 01:32:15;;;;;;;8.65;6.13;;;16.10;99.90;;;;;;5015468;28;20049;-69
2021/06/28 01:34:42;;;;;;;8.23;6.80;;;15.90;99.90;;;;;;5032239;28;20054;-69
2021/06/28 01:37:13;;;;;;;7.82;6.35;;;15.70;99.90;;;;;;5014948;28;20053;-70
2021/06/28 01:39:40;;;;;;;7.25;6.00;;;15.70;99.90;;;;;;5015287;28;20707;-70
2021/06/28 01:42:09;;;;;;;7.10;6.22;;;15.80;99.90;;;;;;5015908;28;20494;-70
2021/06/28 01:44:43;;;;;;;7.38;6.25;;;15.80;99.90;;;;;;5031353;28;20045;-70
2021/06/28 01:47:09;;;;;;;7.45;6.65;;;15.90;99.90;;;;;;5033296;28;20111;-70
2021/06/28 01:49:36;;;;;;;7.55;6.63;;;16.00;99.90;;;;;;5030326;28;20560;-70
2021/06/28 01:52:03;;;;;;;9.35;6.72;;;15.90;99.90;;;;;;5015067;28;20045;-70
2021/06/28 01:54:30;;;;;;;7.53;6.40;;;15.90;99.90;;;;;;5025527;28;20042;-70
2021/06/28 01:56:56;;;;;;;8.00;5.70;;;15.90;99.90;;;;;;5033902;28;20497;-70
2021/06/28 01:59:28;;;;;;;6.95;6.25;;;15.90;99.90;;;;;;5032469;28;20076;-69
2021/06/28 02:01:54;;;;;;;7.88;6.65;;;15.80;99.90;;;;;;5018532;28;20069;-69
2021/06/28 02:04:21;;;;;;;9.00;6.60;;;15.90;99.90;;;;;;5018838;28;20045;-69
2021/06/28 02:06:48;;;;;;;6.90;5.57;;;15.80;99.90;;;;;;5032862;28;20048;-69
2021/06/28 02:09:15;;;;;;;10.13;7.53;;;15.80;99.90;;;;;;5033750;28;20053;-70
2021/06/28 02:11:42;;;;;;;9.38;6.47;;;15.80;99.90;;;;;;5034091;28;20053;-69
2021/06/28 02:14:08;;;;;;;7.57;6.32;;;15.80;99.90;;;;;;5033987;28;20470;-69
2021/06/28 02:16:36;;;;;;;7.40;6.15;;;15.80;99.90;;;;;;5022787;28;20073;-69
2021/06/28 02:19:03;;;;;;;7.50;6.72;;;15.80;99.90;;;;;;5014499;28;20042;-70
2021/06/28 02:21:30;;;;;;;10.27;8.18;;;15.80;99.90;;;;;;5014469;28;20498;-70
2021/06/28 02:23:56;;;;;;;10.30;8.68;;;15.80;99.90;;;;;;5014721;28;20693;-70
2021/06/28 02:26:23;;;;;;;7.68;6.55;;;15.80;99.90;;;;;;5014106;28;20492;-69
2021/06/28 02:28:50;;;;;;;7.72;6.60;;;15.80;99.90;;;;;;5023970;28;20435;-70
2021/06/28 02:31:20;;;;;;;7.63;6.68;;;15.70;99.90;;;;;;5015622;28;20045;-70
2021/06/28 02:33:50;;;;;;;8.23;6.90;;;15.50;99.90;;;;;;5033389;28;20096;-70
2021/06/28 02:36:17;;;;;;;8.32;7.00;;;15.50;99.90;;;;;;5019350;28;20129;-69
2021/06/28 02:38:44;;;;;;;7.63;6.82;;;15.40;99.90;;;;;;5017508;28;20592;-69
2021/06/28 02:41:11;;;;;;;8.40;7.25;;;15.40;99.90;;;;;;5032432;28;20049;-69
2021/06/28 02:43:38;;;;;;;10.90;6.30;;;15.50;99.90;;;;;;5030268;28;20103;-69
2021/06/28 02:46:07;;;;;;;8.20;6.75;;;15.50;99.90;;;;;;5025796;28;20042;-69
2021/06/28 02:48:33;;;;;;;8.95;7.68;;;15.50;99.90;;;;;;5018879;28;20074;-69
2021/06/28 02:51:02;;;;;;;8.10;6.97;;;15.60;99.90;;;;;;5013911;28;20085;-69
2021/06/28 02:53:28;;;;;;;9.25;7.43;;;15.60;99.90;;;;;;5013615;28;20111;-70
2021/06/28 02:55:55;;;;;;;8.02;7.22;;;15.60;99.90;;;;;;5013618;28;20042;-69
2021/06/28 02:58:22;;;;;;;8.55;7.32;;;15.60;99.90;;;;;;5013511;28;20595;-69
2021/06/28 03:00:49;;;;;;;8.70;7.78;;;15.70;99.90;;;;;;5013659;28;20437;-69
2021/06/28 03:03:16;;;;;;;16.95;11.77;;;15.70;99.90;;;;;;5013640;28;20046;-69
2021/06/28 03:05:43;;;;;;;19.77;12.95;;;15.80;99.90;;;;;;5013350;28;20050;-69
2021/06/28 03:08:11;;;;;;;21.33;12.45;;;15.80;99.90;;;;;;5013617;28;20104;-69
2021/06/28 03:10:38;;;;;;;12.63;9.38;;;15.70;99.90;;;;;;5021373;28;20103;-69
2021/06/28 03:13:07;;;;;;;17.35;10.98;;;15.70;99.90;;;;;;5033100;28;20046;-69
2021/06/28 03:15:34;;;;;;;25.92;16.30;;;15.60;99.90;;;;;;5033092;28;20049;-69
2021/06/28 03:18:00;;;;;;;19.75;13.63;;;15.40;99.90;;;;;;5032910;28;20065;-69
2021/06/28 03:20:27;;;;;;;51.35;29.65;;;15.40;99.90;;;;;;5031963;28;20076;-69
2021/06/28 03:22:54;;;;;;;17.00;11.27;;;15.50;99.90;;;;;;5033038;28;20103;-69
2021/06/28 03:25:21;;;;;;;26.73;16.83;;;15.50;99.90;;;;;;5032900;28;20069;-69
2021/06/28 03:27:48;;;;;;;23.55;15.10;;;15.50;99.90;;;;;;5032953;28;20050;-69
2021/06/28 03:30:16;;;;;;;32.25;19.05;;;15.50;99.90;;;;;;5032563;28;20076;-69
2021/06/28 03:32:43;;;;;;;17.48;13.20;;;15.60;99.90;;;;;;5032704;28;20076;-69
2021/06/28 03:35:11;;;;;;;57.25;31.13;;;15.70;99.90;;;;;;5031807;28;20108;-73
2021/06/28 03:37:39;;;;;;;57.70;31.67;;;15.80;99.90;;;;;;5030484;28;20099;-73
2021/06/28 03:40:07;;;;;;;12.75;10.50;;;15.90;99.90;;;;;;5020227;28;20128;-71
2021/06/28 03:42:35;;;;;;;49.85;27.35;;;16.00;99.90;;;;;;5016591;28;20046;-70
2021/06/28 03:45:02;;;;;;;14.93;10.35;;;16.10;99.90;;;;;;5032557;28;20045;-72
2021/06/28 03:47:28;;;;;;;25.48;15.38;;;16.10;99.90;;;;;;5031516;28;20156;-71
2021/06/28 03:49:55;;;;;;;29.77;17.45;;;16.20;99.90;;;;;;5032348;28;20377;-71
2021/06/28 03:52:21;;;;;;;14.90;10.90;;;16.20;99.90;;;;;;5032374;28;20099;-71
2021/06/28 03:54:48;;;;;;;7.80;7.00;;;16.30;99.90;;;;;;5031008;28;20490;-70
2021/06/28 03:57:15;;;;;;;19.38;13.43;;;16.40;99.90;;;;;;5031938;28;20046;-72
2021/06/28 03:59:43;;;;;;;12.73;10.23;;;16.50;99.90;;;;;;5032209;28;20382;-72
2021/06/28 04:02:10;;;;;;;15.55;9.68;;;16.60;99.90;;;;;;5031891;28;20053;-69
2021/06/28 04:04:36;;;;;;;31.90;20.40;;;16.70;99.90;;;;;;5032240;28;20045;-69
2021/06/28 04:07:04;;;;;;;13.63;10.77;;;16.80;99.90;;;;;;5032031;28;20083;-69
2021/06/28 04:09:30;;;;;;;12.85;8.80;;;16.90;99.90;;;;;;5023823;28;20041;-68
2021/06/28 04:11:57;;;;;;;16.23;10.40;;;17.00;99.90;;;;;;5030112;28;20087;-70
2021/06/28 04:14:23;;;;;;;11.82;9.65;;;17.10;99.90;;;;;;5012679;28;20045;-69
2021/06/28 04:16:53;;;;;;;10.77;8.75;;;17.10;99.90;;;;;;5020743;28;20560;-70
2021/06/28 04:19:19;;;;;;;8.35;6.80;;;17.20;99.90;;;;;;5032537;28;20103;-75
2021/06/28 04:21:46;;;;;;;8.23;7.43;;;17.20;99.90;;;;;;5032356;28;20115;-74
2021/06/28 04:24:13;;;;;;;19.23;12.93;;;17.30;99.90;;;;;;5022623;28;20042;-74
2021/06/28 04:26:39;;;;;;;17.25;10.98;;;17.30;99.90;;;;;;5031776;28;20103;-74
2021/06/28 04:29:06;;;;;;;9.35;7.18;;;17.30;99.90;;;;;;5031960;28;20049;-75
2021/06/28 04:31:32;;;;;;;17.95;12.38;;;17.40;99.90;;;;;;5032480;28;20107;-73
2021/06/28 04:34:00;;;;;;;12.98;10.00;;;17.50;99.90;;;;;;5032125;28;20049;-72
2021/06/28 04:36:27;;;;;;;11.45;7.10;;;17.70;99.90;;;;;;5032293;28;20497;-72
2021/06/28 04:38:53;;;;;;;22.88;14.80;;;17.80;99.90;;;;;;5031506;28;20081;-73
2021/06/28 04:41:20;;;;;;;14.60;10.10;;;18.00;99.90;;;;;;5031664;28;20374;-73
2021/06/28 04:43:47;;;;;;;10.35;7.07;;;18.20;99.90;;;;;;5032418;28;20052;-71
2021/06/28 04:46:13;;;;;;;20.75;13.57;;;18.40;99.90;;;;;;5031304;28;20460;-72
2021/06/28 04:48:40;;;;;;;12.88;9.90;;;18.50;99.90;;;;;;5027723;28;20041;-73
2021/06/28 04:51:08;;;;;;;38.03;22.40;;;18.70;99.90;;;;;;5032495;28;20468;-73
2021/06/28 04:53:34;;;;;;;19.42;9.77;;;18.80;99.90;;;;;;5025722;28;20096;-74
2021/06/28 04:56:04;;;;;;;16.10;10.25;;;19.00;99.90;;;;;;5024677;28;20041;-74
2021/06/28 04:58:30;;;;;;;10.88;7.45;;;19.20;99.90;;;;;;5031357;28;20547;-74
2021/06/28 05:00:57;;;;;;;27.30;19.33;;;19.30;99.90;;;;;;5026905;28;20042;-74
2021/06/28 05:03:24;;;;;;;7.53;6.93;;;19.30;99.90;;;;;;5035539;28;20107;-76
2021/06/28 05:05:50;;;;;;;10.75;8.07;;;19.40;99.90;;;;;;5034991;28;20544;-74
2021/06/28 05:08:18;;;;;;;14.63;9.95;;;19.40;99.90;;;;;;5035480;28;20049;-72
2021/06/28 05:10:45;;;;;;;16.02;10.65;;;19.50;99.90;;;;;;5024107;28;20173;-72
2021/06/28 05:13:12;;;;;;;13.40;10.65;;;19.60;99.90;;;;;;5035679;28;20045;-74
2021/06/28 05:15:39;;;;;;;8.90;7.93;;;19.90;99.90;;;;;;5034480;28;20092;-72
2021/06/28 05:18:05;;;;;;;9.32;6.88;;;20.00;99.90;;;;;;5035028;28;20049;-73
2021/06/28 05:20:32;;;;;;;12.48;8.45;;;20.20;99.90;;;;;;5035964;28;20046;-77
2021/06/28 05:22:59;;;;;;;10.60;9.50;;;20.40;99.90;;;;;;5035233;28;20099;-73
2021/06/28 05:25:26;;;;;;;6.97;6.28;;;20.60;99.90;;;;;;5034459;28;20100;-74
2021/06/28 05:27:53;;;;;;;8.38;5.90;;;20.80;99.90;;;;;;5033945;28;20562;-72
2021/06/28 05:30:20;;;;;;;8.43;7.43;;;21.00;99.90;;;;;;5015504;28;20054;-72
2021/06/28 05:32:47;;;;;;;8.48;6.32;;;21.00;99.90;;;;;;5015431;28;20046;-75
2021/06/28 05:35:14;;;;;;;7.93;7.03;;;21.20;99.90;;;;;;5022492;28;20053;-75
2021/06/28 05:37:41;;;;;;;5.40;4.85;;;21.40;99.90;;;;;;5034230;28;20042;-73
2021/06/28 05:40:09;;;;;;;6.03;5.40;;;21.50;99.90;;;;;;5031418;28;20494;-74
2021/06/28 05:42:39;;;;;;;7.15;5.97;;;21.60;99.90;;;;;;5018523;28;20551;-72
2021/06/28 05:45:07;;;;;;;14.88;11.48;;;21.70;99.90;;;;;;5034611;28;20072;-75
2021/06/28 05:47:34;;;;;;;5.82;5.35;;;21.70;99.90;;;;;;5020369;28;20058;-74
2021/06/28 05:50:01;;;;;;;6.75;5.80;;;21.90;99.90;;;;;;5033611;28;20041;-72
2021/06/28 05:52:27;;;;;;;10.15;5.85;;;22.10;99.90;;;;;;5034092;28;20413;-77
2021/06/28 05:54:54;;;;;;;6.78;5.63;;;22.30;99.90;;;;;;5033014;28;20041;-71
2021/06/28 05:57:24;;;;;;;5.60;5.07;;;22.40;99.90;;;;;;5034418;28;20108;-71
2021/06/28 05:59:54;;;;;;;6.45;5.85;;;22.60;99.90;;;;;;5034558;28;20385;-71
2021/06/28 06:02:20;;;;;;;6.03;5.32;;;22.70;99.90;;;;;;5034406;28;20049;-72
2021/06/28 06:04:47;;;;;;;6.30;5.32;;;22.80;99.90;;;;;;5034409;28;20041;-71
2021/06/28 06:07:14;;;;;;;7.45;5.00;;;22.90;99.90;;;;;;5033550;28;20046;-72
2021/06/28 06:09:41;;;;;;;7.95;5.65;;;22.90;99.90;;;;;;5036348;28;20642;-74
2021/06/28 06:12:08;;;;;;;6.32;5.78;;;23.00;99.90;;;;;;5033936;28;20099;-73
2021/06/28 06:14:35;;;;;;;5.30;4.80;;;23.20;99.00;;;;;;5034233;28;20050;-73
2021/06/28 06:17:04;;;;;;;5.30;4.82;;;23.40;98.50;;;;;;5034057;28;20049;-74
2021/06/28 06:19:30;;;;;;;5.75;5.25;;;23.70;98.00;;;;;;5033858;28;20042;-74
2021/06/28 06:21:57;;;;;;;5.95;5.35;;;24.10;96.00;;;;;;5034240;28;20069;-73
2021/06/28 06:24:27;;;;;;;5.10;4.70;;;24.20;95.20;;;;;;5031378;28;20131;-72
2021/06/28 06:26:54;;;;;;;4.63;4.22;;;24.40;94.50;;;;;;5026018;28;20057;-73
2021/06/28 06:29:20;;;;;;;5.20;4.72;;;24.70;92.30;;;;;;5033595;28;20099;-72
2021/06/28 06:31:47;;;;;;;5.47;4.97;;;24.80;91.60;;;;;;5015659;28;20054;-74
2021/06/28 06:34:15;;;;;;;5.93;5.35;;;25.10;91.10;;;;;;5033624;28;20460;-73
2021/06/28 06:36:42;;;;;;;6.30;5.20;;;25.50;90.40;;;;;;5033730;28;20103;-72
2021/06/28 06:39:09;;;;;;;8.80;7.25;;;25.90;88.80;;;;;;5033662;28;20383;-75
2021/06/28 06:41:35;;;;;;;6.75;6.15;;;26.10;86.50;;;;;;5016339;28;20112;-74
2021/06/28 06:44:02;;;;;;;6.70;5.78;;;26.10;84.30;;;;;;5031161;28;20439;-74
2021/06/28 06:46:28;;;;;;;6.43;5.93;;;26.00;83.90;;;;;;5030417;28;20390;-74
2021/06/28 06:48:55;;;;;;;6.32;5.72;;;26.10;83.90;;;;;;5033176;28;20564;-77
2021/06/28 06:51:23;;;;;;;6.35;5.70;;;26.40;83.50;;;;;;5033257;28;20652;-77
2021/06/28 06:53:49;;;;;;;7.63;6.88;;;26.70;82.30;;;;;;5023180;28;20046;-74
2021/06/28 06:56:16;;;;;;;7.90;7.18;;;27.20;81.40;;;;;;5033493;28;20045;-73
2021/06/28 06:58:42;;;;;;;6.85;6.25;;;27.70;78.40;;;;;;5033108;28;20045;-72
2021/06/28 07:01:13;;;;;;;6.35;5.80;;;28.00;76.80;;;;;;5033264;28;20085;-72
2021/06/28 07:03:40;;;;;;;8.63;6.82;;;28.30;73.60;;;;;;5033085;28;20091;-73
2021/06/28 07:06:06;;;;;;;6.32;5.82;;;28.20;73.00;;;;;;5032929;28;20085;-73
2021/06/28 07:08:36;;;;;;;7.85;7.15;;;28.30;73.30;;;;;;5019996;28;20042;-73
2021/06/28 07:11:04;;;;;;;10.70;9.32;;;28.90;71.70;;;;;;5028692;28;20048;-72
2021/06/28 07:13:31;;;;;;;6.30;5.70;;;29.30;69.70;;;;;;5027367;28;20049;-74
2021/06/28 07:15:58;;;;;;;6.97;6.38;;;29.50;67.40;;;;;;5014331;28;20046;-73
2021/06/28 07:18:24;;;;;;;6.88;6.28;;;29.50;66.40;;;;;;5014043;28;20088;-72
2021/06/28 07:20:51;;;;;;;11.18;9.02;;;29.80;66.00;;;;;;5026961;28;20037;-74
2021/06/28 07:23:18;;;;;;;9.90;7.78;;;29.80;66.20;;;;;;5032920;28;20045;-72
2021/06/28 07:25:46;;;;;;;8.38;6.68;;;30.70;64.80;;;;;;5031465;28;20049;-73
2021/06/28 07:28:12;;;;;;;6.95;6.32;;;30.60;62.90;;;;;;5032697;28;20046;-71
2021/06/28 07:30:40;;;;;;;9.52;8.35;;;30.50;63.00;;;;;;5031726;28;20049;-72
2021/06/28 07:33:07;;;;;;;8.15;6.75;;;31.00;62.20;;;;;;5032735;28;20041;-72
2021/06/28 07:35:34;;;;;;;11.15;9.68;;;31.50;60.60;;;;;;4981499;28;20062;-74
2021/06/28 07:38:01;;;;;;;9.63;8.38;;;31.80;59.30;;;;;;5024486;28;20115;-70
2021/06/28 07:40:27;;;;;;;7.07;5.88;;;31.80;58.10;;;;;;5005394;28;20047;-70
2021/06/28 07:42:55;;;;;;;7.68;6.88;;;31.90;57.40;;;;;;5012789;28;20046;-69
2021/06/28 07:45:23;;;;;;;17.20;12.45;;;32.00;55.90;;;;;;5012620;28;20042;-70
2021/06/28 07:47:51;;;;;;;8.60;7.80;;;31.80;55.30;;;;;;5002708;28;20463;-73
2021/06/28 07:50:19;;;;;;;6.97;6.18;;;32.00;56.10;;;;;;5012687;28;20049;-70
2021/06/28 07:52:46;;;;;;;6.07;5.57;;;31.20;56.10;;;;;;5012756;28;20050;-70
2021/06/28 07:55:14;;;;;;;6.28;5.68;;;31.10;56.00;;;;;;5005114;28;20108;-72
2021/06/28 07:57:41;;;;;;;6.30;5.40;;;30.80;56.30;;;;;;4993844;28;20495;-69
2021/06/28 08:00:11;;;;;;;6.97;6.15;;;30.50;55.40;;;;;;5011952;28;20050;-71
2021/06/28 08:02:38;;;;;;;5.95;5.18;;;30.70;55.00;;;;;;5002569;28;20088;-68
2021/06/28 08:05:06;;;;;;;6.68;5.97;;;31.10;54.10;;;;;;5012448;28;20113;-69
2021/06/28 08:07:32;;;;;;;4.18;3.88;;;31.50;54.00;;;;;;5011909;28;20505;-69
2021/06/28 08:09:59;;;;;;;7.45;6.75;;;31.50;51.20;;;;;;5011923;28;20096;-69
2021/06/28 08:12:26;;;;;;;4.75;4.45;;;31.40;51.40;;;;;;5005794;28;20047;-72
2021/06/28 08:14:53;;;;;;;6.35;4.57;;;31.60;51.60;;;;;;4999056;28;20042;-70
2021/06/28 08:17:20;;;;;;;9.05;7.97;;;32.10;50.20;;;;;;5012339;28;20100;-70
2021/06/28 08:19:47;;;;;;;6.15;5.60;;;32.60;50.40;;;;;;5012403;28;20046;-69
2021/06/28 08:22:14;;;;;;;6.15;5.30;;;32.80;50.00;;;;;;5015397;28;20045;-69
2021/06/28 08:24:41;;;;;;;10.77;9.02;;;33.00;50.30;;;;;;5021398;28;20052;-69
2021/06/28 08:27:08;;;;;;;6.47;5.88;;;33.90;48.80;;;;;;4997665;28;20565;-69
2021/06/28 08:29:35;;;;;;;9.73;8.40;;;34.60;46.50;;;;;;5011947;28;20054;-70
2021/06/28 08:32:01;;;;;;;7.22;6.35;;;35.10;46.30;;;;;;4992849;28;20097;-70
2021/06/28 08:34:31;;;;;;;6.05;5.22;;;35.60;45.60;;;;;;4992914;28;20046;-70
2021/06/28 08:36:58;;;;;;;4.65;4.22;;;34.70;45.50;;;;;;5011070;28;20046;-70
2021/06/28 08:39:24;;;;;;;3.60;3.30;;;35.50;44.70;;;;;;5015719;28;20054;-69
2021/06/28 08:41:53;;;;;;;3.63;3.33;;;34.90;43.60;;;;;;5016060;28;20050;-67
2021/06/28 08:44:20;;;;;;;3.55;3.30;;;34.80;44.70;;;;;;5002854;28;20105;-69
2021/06/28 08:46:47;;;;;;;3.97;3.72;;;34.50;44.50;;;;;;5015643;28;20092;-71
2021/06/28 08:49:15;;;;;;;2.83;2.63;;;34.20;45.00;;;;;;5015846;28;20052;-71
2021/06/28 08:51:44;;;;;;;4.57;3.90;;;34.70;43.40;;;;;;5015704;28;20050;-68
2021/06/28 08:54:13;;;;;;;4.95;4.53;;;34.80;42.90;;;;;;5016041;28;20049;-71
2021/06/28 08:56:42;;;;;;;2.20;2.10;;;35.60;44.70;;;;;;5014208;28;20096;-71
2021/06/28 08:59:08;;;;;;;4.07;3.15;;;34.50;41.90;;;;;;5015159;28;20069;-72
2021/06/28 09:01:36;;;;;;;6.57;5.55;;;34.40;43.60;;;;;;5008634;28;20050;-72
2021/06/28 09:04:04;;;;;;;3.95;3.40;;;35.20;43.70;;;;;;4997048;28;20450;-72
2021/06/28 09:06:31;;;;;;;3.78;3.38;;;35.00;44.00;;;;;;5011858;28;20107;-70
2021/06/28 09:09:01;;;;;;;5.22;4.72;;;34.90;42.90;;;;;;5014138;28;20450;-71
2021/06/28 09:11:28;;;;;;;3.27;3.07;;;35.20;43.60;;;;;;5014937;28;20445;-71
2021/06/28 09:13:57;;;;;;;4.07;3.78;;;34.90;42.50;;;;;;5014292;28;20105;-69
2021/06/28 09:16:26;;;;;;;3.05;2.85;;;34.10;43.90;;;;;;5015137;28;20104;-70
2021/06/28 09:18:58;;;;;;;2.90;2.70;;;34.70;43.60;;;;;;5015181;28;20071;-70
2021/06/28 09:21:27;;;;;;;3.33;3.10;;;34.30;42.90;;;;;;5015460;28;20148;-71
2021/06/28 09:23:55;;;;;;;4.45;4.05;;;34.40;42.50;;;;;;5008602;28;20046;-71
2021/06/28 09:26:27;;;;;;;3.78;3.47;;;35.20;42.00;;;;;;5015161;28;20049;-69
2021/06/28 09:28:56;;;;;;;3.08;2.88;;;35.60;40.70;;;;;;5013011;28;20072;-70
2021/06/28 09:31:43;;;;;;;2.83;2.65;;;35.00;41.20;;;;;;5015324;28;20132;-70
2021/06/28 09:34:16;;;;;;;4.43;3.95;;;34.20;42.80;;;;;;5015269;28;20045;-70
2021/06/28 09:36:49;;;;;;;4.50;4.10;;;34.90;41.60;;;;;;5014977;28;20049;-70
2021/06/28 09:39:28;;;;;;;6.97;6.28;;;35.90;40.90;;;;;;5014638;28;20046;-71
2021/06/28 09:41:59;;;;;;;12.73;9.93;;;37.10;39.70;;;;;;5015097;28;20058;-73
2021/06/28 09:44:28;;;;;;;10.52;9.10;;;38.10;39.10;;;;;;5015127;28;20041;-72
2021/06/28 09:47:10;;;;;;;6.85;5.88;;;39.00;37.80;;;;;;5011553;28;20120;-70
2021/06/28 09:49:37;;;;;;;3.90;3.60;;;39.00;37.10;;;;;;5014383;28;20390;-71
2021/06/28 09:52:05;;;;;;;3.08;2.88;;;37.70;37.70;;;;;;5004640;28;20046;-70
2021/06/28 09:54:34;;;;;;;13.35;11.63;;;36.80;38.50;;;;;;4995215;28;20046;-70
2021/06/28 09:57:06;;;;;;;4.55;4.18;;;37.60;38.10;;;;;;4994790;28;20046;-70
2021/06/28 09:59:35;;;;;;;3.95;3.65;;;38.10;37.70;;;;;;4996544;28;20070;-71
2021/06/28 10:02:15;;;;;;;3.50;3.30;;;37.70;37.50;;;;;;4994894;28;20046;-71
2021/06/28 10:04:47;;;;;;;3.65;3.35;;;37.10;38.40;;;;;;4995260;28;20057;-70
2021/06/28 10:07:29;;;;;;;4.85;4.00;;;35.60;39.60;;;;;;4994858;28;20056;-70
2021/06/28 10:10:13;;;;;;;4.88;4.40;;;35.20;40.80;;;;;;4994747;28;20053;-70
2021/06/28 10:12:43;;;;;;;3.25;3.05;;;36.20;39.50;;;;;;4995043;28;20051;-70
2021/06/28 10:15:11;;;;;;;;;;;36.50;38.50;;;;;;4995507;28;20073;-70
2021/06/28 10:17:38;;;;;;;6.05;5.45;;;36.20;37.90;;;;;;4994578;28;20356;-71
2021/06/28 10:20:06;;;;;;;5.18;4.38;;;37.00;38.40;;;;;;4994948;28;20050;-70
2021/06/28 10:22:34;;;;;;;5.38;4.88;;;37.20;37.90;;;;;;4994900;28;20046;-70
2021/06/28 10:25:00;;;;;;;5.20;4.70;;;38.00;36.60;;;;;;4998588;28;20069;-70
2021/06/28 10:27:28;;;;;;;4.32;3.90;;;38.60;35.30;;;;;;4994385;28;20046;-70
2021/06/28 10:29:56;;;;;;;4.63;4.32;;;37.80;36.20;;;;;;4997985;28;20137;-70
2021/06/28 10:32:23;;;;;;;4.10;3.80;;;37.00;37.10;;;;;;4994485;28;20556;-70
2021/06/28 10:34:51;;;;;;;3.67;3.42;;;36.60;38.00;;;;;;4994521;28;20494;-70
2021/06/28 10:37:34;;;;;;;3.95;3.60;;;37.30;38.40;;;;;;4994373;28;20140;-70
2021/06/28 10:40:05;;;;;;;4.22;3.92;;;36.50;37.80;;;;;;4994230;28;20523;-70
2021/06/28 10:42:35;;;;;;;3.70;3.50;;;36.60;38.50;;;;;;4994760;28;20074;-71
2021/06/28 10:45:05;;;;;;;3.97;3.77;;;37.10;37.40;;;;;;4994436;28;20537;-70
2021/06/28 10:47:32;;;;;;;9.57;8.55;;;37.70;36.70;;;;;;5009413;28;20352;-71
2021/06/28 10:49:59;;;;;;;4.20;3.90;;;38.10;37.00;;;;;;5013761;28;20482;-71
2021/06/28 10:52:48;;;;;;;3.80;3.55;;;38.50;35.50;;;;;;5011896;28;20103;-71
2021/06/28 10:55:38;;;;;;;4.28;4.05;;;37.80;36.10;;;;;;5013720;28;20556;-70
2021/06/28 10:58:28;;;;;;;4.15;3.85;;;36.40;38.10;;;;;;5011104;28;20042;-73
2021/06/28 11:01:04;;;;;;;6.47;5.85;;;35.40;38.40;;;;;;5009112;28;20042;-70
2021/06/28 11:03:34;;;;;;;5.38;4.88;;;35.60;38.60;;;;;;5025623;28;20049;-70
2021/06/28 11:06:21;;;;;;;4.10;3.80;;;34.90;38.80;;;;;;5033165;28;20049;-70
2021/06/28 11:09:00;;;;;;;12.35;10.05;;;34.40;40.20;;;;;;4998531;28;20077;-71
2021/06/28 11:11:54;;;;;;;3.63;3.42;;;35.20;41.10;;;;;;5013109;28;20505;-70
2021/06/28 11:14:45;;;;;;;9.00;7.88;;;36.70;38.70;;;;;;5017330;28;20042;-72
2021/06/28 11:17:16;;;;;;;3.63;3.38;;;37.70;38.20;;;;;;4999462;28;20054;-71
2021/06/28 11:19:55;;;;;;;3.40;3.17;;;37.30;36.30;;;;;;5009450;28;20041;-70
2021/06/28 11:22:36;;;;;;;4.15;3.60;;;36.30;35.70;;;;;;4997199;28;20042;-70
2021/06/28 11:25:12;;;;;;;2.85;2.65;;;35.90;37.10;;;;;;5007460;28;20053;-69
2021/06/28 11:27:40;;;;;;;4.07;3.72;;;35.70;37.60;;;;;;5012896;28;20147;-69
2021/06/28 11:30:20;;;;;;;3.83;3.53;;;36.10;37.40;;;;;;5012912;28;20189;-69
2021/06/28 11:32:59;;;;;;;3.22;2.92;;;36.70;37.20;;;;;;5009729;28;20404;-70
2021/06/28 11:35:41;;;;;;;7.97;7.07;;;36.30;37.00;;;;;;5013009;28;20061;-72
2021/06/28 11:38:37;;;;;;;8.45;7.28;;;36.20;37.20;;;;;;5012968;28;20561;-72
2021/06/28 11:41:15;;;;;;;3.13;2.92;;;35.70;37.90;;;;;;5012196;28;20072;-71
2021/06/28 11:43:44;;;;;;;3.47;3.28;;;34.60;39.30;;;;;;5013064;28;20140;-70
2021/06/28 11:46:12;;;;;;;4.57;3.88;;;33.10;41.00;;;;;;5002165;28;20051;-70
2021/06/28 11:48:44;;;;;;;4.00;3.78;;;32.90;41.30;;;;;;5010026;28;20053;-70
2021/06/28 11:51:22;;;;;;;3.88;3.60;;;32.80;42.00;;;;;;5013029;28;20100;-70
2021/06/28 11:53:54;;;;;;;4.55;3.70;;;32.70;42.40;;;;;;5012764;28;20052;-70
2021/06/28 11:56:26;;;;;;;4.20;3.90;;;33.10;43.10;;;;;;5012681;28;20054;-70
2021/06/28 11:59:01;;;;;;;3.78;3.47;;;33.10;42.40;;;;;;4997587;28;20046;-70
2021/06/28 12:01:30;;;;;;;4.05;3.75;;;33.10;42.60;;;;;;4993083;28;20093;-70
2021/06/28 12:04:00;;;;;;;4.15;3.85;;;33.20;42.20;;;;;;4993216;28;20133;-70
2021/06/28 12:06:29;;;;;;;4.28;3.97;;;33.10;42.60;;;;;;4992949;28;20457;-71
2021/06/28 12:09:11;;;;;;;4.47;4.15;;;33.30;43.40;;;;;;4992811;28;20060;-71
2021/06/28 12:11:48;;;;;;;3.20;3.00;;;34.10;42.20;;;;;;4992789;28;20124;-70
2021/06/28 12:14:28;;;;;;;3.83;3.30;;;35.40;40.80;;;;;;5012485;28;20054;-70
2021/06/28 12:16:55;;;;;;;5.45;4.78;;;35.50;38.90;;;;;;4998444;28;20472;-70
2021/06/28 12:19:23;;;;;;;8.38;7.53;;;35.00;38.60;;;;;;4993004;28;20121;-71
2021/06/28 12:21:50;;;;;;;3.75;3.45;;;35.70;39.20;;;;;;4992789;28;20097;-70
2021/06/28 12:24:18;;;;;;;3.50;2.97;;;36.50;38.90;;;;;;4999617;28;20048;-70
2021/06/28 12:27:00;;;;;;;3.35;3.15;;;36.20;38.50;;;;;;5015998;28;20042;-70
2021/06/28 12:29:32;;;;;;;3.05;2.85;;;35.40;37.40;;;;;;5032261;28;20054;-69
2021/06/28 12:32:08;;;;;;;4.82;4.32;;;36.00;37.80;;;;;;5027438;28;20498;-71
2021/06/28 12:34:38;;;;;;;4.60;4.20;;;36.40;38.00;;;;;;5012166;28;20544;-71
2021/06/28 12:37:06;;;;;;;4.50;4.15;;;36.60;38.70;;;;;;5009563;28;20105;-70
2021/06/28 12:39:33;;;;;;;3.60;3.33;;;37.30;37.10;;;;;;5012592;28;20053;-69
2021/06/28 12:42:15;;;;;;;4.30;3.13;;;37.00;37.10;;;;;;5011848;28;20046;-70
2021/06/28 12:44:42;;;;;;;3.55;3.28;;;36.50;36.80;;;;;;5011915;28;20053;-70
2021/06/28 12:47:11;;;;;;;3.13;2.92;;;35.70;37.80;;;;;;5011565;28;20054;-71
2021/06/28 12:49:40;;;;;;;4.03;3.72;;;36.00;37.80;;;;;;5010002;28;20042;-71
2021/06/28 12:52:31;;;;;;;9.32;4.43;;;36.50;37.60;;;;;;5009252;28;20094;-72